Time;durP1;ratioP1;P1;durP2;ratioP2;P2;SDS_P1;SDS_P2;PMS_P1;PMS_P2;Temp;Humidity;BMP_temperature;BMP_pressure;BME280_temperature;BME280_humidity;BME280_pressure;Samples;Min_cycle;Max_cycle;Signal;HPM_P1;HPM_P2
2022/06/20 00:00:40;;;;;;;14.57;12.27;;;;;;;;;;4991810;28;20414;-68
2022/06/20 00:03:09;;;;;;;16.30;11.70;;;;;;;;;;4991375;28;20416;-68
2022/06/20 00:05:36;;;;;;;16.07;11.90;;;;;;;;;;4992025;28;20424;-68
2022/06/20 00:08:03;;;;;;;14.00;12.50;;;;;;;;;;4990437;28;20450;-68
2022/06/20 00:10:30;;;;;;;23.43;12.83;;;;;;;;;;4991315;28;20489;-68
2022/06/20 00:12:56;;;;;;;16.20;12.20;;;;;;;;;;4990610;28;20419;-68
2022/06/20 00:15:22;;;;;;;18.00;13.30;;;;;;;;;;4991222;28;20423;-68
2022/06/20 00:17:48;;;;;;;16.03;11.77;;;;;;;;;;4989877;28;20605;-68
2022/06/20 00:20:15;;;;;;;20.30;12.93;;;;;;;;;;4990460;28;20411;-68
2022/06/20 00:22:41;;;;;;;14.80;12.30;;;;;;;;;;4990365;28;20469;-68
2022/06/20 00:25:07;;;;;;;20.47;12.23;;;;;;;;;;4990674;28;20763;-68
2022/06/20 00:27:33;;;;;;;15.70;11.93;;;;;;;;;;4989758;28;20498;-68
2022/06/20 00:29:59;;;;;;;15.60;12.97;;;;;;;;;;4990364;28;20395;-68
2022/06/20 00:32:25;;;;;;;21.53;12.33;;;;;;;;;;4990379;28;20712;-68
2022/06/20 00:34:51;;;;;;;17.47;13.40;;;;;;;;;;4991162;28;20482;-68
2022/06/20 00:37:19;;;;;;;21.10;12.93;;;;;;;;;;4990365;28;20559;-68
2022/06/20 00:39:46;;;;;;;17.87;13.57;;;;;;;;;;4990229;28;20411;-66
2022/06/20 00:42:12;;;;;;;18.73;14.23;;;;;;;;;;4989738;28;20444;-66
2022/06/20 00:44:41;;;;;;;14.97;13.40;;;;;;;;;;4990334;28;20480;-66
2022/06/20 00:47:10;;;;;;;16.40;14.03;;;;;;;;;;4989524;28;20459;-66
2022/06/20 00:49:55;;;;;;;17.97;15.57;;;;;;;;;;4989862;28;20392;-66
2022/06/20 00:52:40;;;;;;;22.90;14.83;;;;;;;;;;4990058;28;20490;-67
2022/06/20 00:55:11;;;;;;;22.13;14.13;;;;;;;;;;4989857;28;20419;-66
2022/06/20 00:57:41;;;;;;;18.53;14.20;;;;;;;;;;4989770;28;20380;-66
2022/06/20 01:00:07;;;;;;;17.03;14.17;;;;;;;;;;4990243;28;20400;-67
2022/06/20 01:02:36;;;;;;;18.50;14.13;;;;;;;;;;4989432;28;20623;-66
2022/06/20 01:05:13;;;;;;;18.57;13.30;;;;;;;;;;4990442;28;20909;-66
2022/06/20 01:07:48;;;;;;;18.40;13.50;;;;;;;;;;4989730;28;20447;-66
2022/06/20 01:10:15;;;;;;;21.20;15.10;;;;;;;;;;4989807;28;20407;-66
2022/06/20 01:12:48;;;;;;;17.60;14.00;;;;;;;;;;4989673;28;20407;-66
2022/06/20 01:15:16;;;;;;;20.47;13.97;;;;;;;;;;4990473;28;20412;-67
2022/06/20 01:17:42;;;;;;;20.30;13.63;;;;;;;;;;4988766;28;20423;-66
2022/06/20 01:20:22;;;;;;;14.70;11.80;;;;;;;;;;4990149;28;20408;-67
2022/06/20 01:22:49;;;;;;;14.83;12.60;;;;;;;;;;4989867;28;20487;-66
2022/06/20 01:25:33;;;;;;;16.70;12.80;;;;;;;;;;4989907;28;20435;-66
2022/06/20 01:28:00;;;;;;;18.17;12.47;;;;;;;;;;4989294;28;20553;-67
2022/06/20 01:30:28;;;;;;;22.90;12.60;;;;;;;;;;4989706;28;20915;-66
2022/06/20 01:32:55;;;;;;;18.23;12.77;;;;;;;;;;4989482;28;20725;-69
2022/06/20 01:38:09;;;;;;;23.23;12.60;;;;;;;;;;4988720;28;20516;-67
2022/06/20 01:40:36;;;;;;;27.10;13.90;;;;;;;;;;4989533;28;20412;-67
2022/06/20 01:43:02;;;;;;;17.47;12.47;;;;;;;;;;4988372;28;20416;-67
2022/06/20 01:48:15;;;;;;;17.13;12.00;;;;;;;;;;4987791;28;21128;-67
2022/06/20 01:50:42;;;;;;;23.70;12.50;;;;;;;;;;4988087;28;20431;-66
2022/06/20 01:53:10;;;;;;;14.23;12.43;;;;;;;;;;4988312;28;21273;-66
2022/06/20 01:55:37;;;;;;;16.73;11.67;;;;;;;;;;4989041;28;20415;-67
2022/06/20 01:58:09;;;;;;;22.30;13.33;;;;;;;;;;4988416;28;20718;-66
2022/06/20 02:00:36;;;;;;;15.67;11.37;;;;;;;;;;4989496;28;20411;-66
2022/06/20 02:03:04;;;;;;;17.90;13.20;;;;;;;;;;4988282;28;20419;-67
2022/06/20 02:05:32;;;;;;;16.03;11.60;;;;;;;;;;4989134;28;20515;-66
2022/06/20 02:07:59;;;;;;;14.23;12.60;;;;;;;;;;4987673;28;20455;-67
2022/06/20 02:10:27;;;;;;;16.30;12.53;;;;;;;;;;4988504;28;20447;-67
2022/06/20 02:12:54;;;;;;;17.23;11.97;;;;;;;;;;4988323;28;20772;-67
2022/06/20 02:15:20;;;;;;;22.90;13.20;;;;;;;;;;4988610;28;20509;-66
2022/06/20 02:17:48;;;;;;;16.03;13.27;;;;;;;;;;4987549;28;20462;-66
2022/06/20 02:20:16;;;;;;;13.17;11.30;;;;;;;;;;4988247;28;20747;-66
2022/06/20 02:22:43;;;;;;;23.93;12.40;;;;;;;;;;4987705;28;20404;-67
2022/06/20 02:25:13;;;;;;;17.83;13.00;;;;;;;;;;4988325;28;20427;-67
2022/06/20 02:27:51;;;;;;;20.80;13.13;;;;;;;;;;4987243;28;20482;-67
2022/06/20 02:30:17;;;;;;;16.83;12.43;;;;;;;;;;4987857;28;20802;-67
2022/06/20 02:32:45;;;;;;;14.83;11.53;;;;;;;;;;4987641;28;20408;-67
2022/06/20 02:35:14;;;;;;;14.00;11.50;;;;;;;;;;4988069;28;20545;-67
2022/06/20 02:37:40;;;;;;;15.07;13.47;;;;;;;;;;4987352;28;20908;-66
2022/06/20 02:40:09;;;;;;;17.10;13.10;;;;;;;;;;4989060;28;20462;-66
2022/06/20 02:42:47;;;;;;;15.53;11.03;;;;;;;;;;5007325;28;20489;-67
2022/06/20 02:45:13;;;;;;;21.37;11.97;;;;;;;;;;5007718;28;20903;-66
2022/06/20 02:47:40;;;;;;;18.07;12.47;;;;;;;;;;5006701;28;20514;-66
2022/06/20 02:50:07;;;;;;;21.20;14.13;;;;;;;;;;5006968;28;20527;-66
2022/06/20 02:52:36;;;;;;;16.53;12.13;;;;;;;;;;4987070;28;20442;-66
2022/06/20 02:55:03;;;;;;;20.20;11.27;;;;;;;;;;4987926;28;20439;-67
2022/06/20 02:57:34;;;;;;;17.47;12.53;;;;;;;;;;4987450;28;20420;-67
2022/06/20 03:00:01;;;;;;;20.87;12.30;;;;;;;;;;4987607;28;20849;-67
2022/06/20 03:02:30;;;;;;;14.63;13.20;;;;;;;;;;4987536;28;20507;-67
2022/06/20 03:04:56;;;;;;;23.50;14.57;;;;;;;;;;4988280;28;20948;-68
2022/06/20 03:07:24;;;;;;;23.87;14.40;;;;;;;;;;4987375;28;20451;-67
2022/06/20 03:09:53;;;;;;;21.00;13.40;;;;;;;;;;4988750;28;20419;-66
2022/06/20 03:12:19;;;;;;;26.43;14.87;;;;;;;;;;4988166;28;20483;-68
2022/06/20 03:14:47;;;;;;;19.70;14.60;;;;;;;;;;4990310;28;20526;-68
2022/06/20 03:17:14;;;;;;;22.00;13.77;;;;;;;;;;4989388;28;20475;-68
2022/06/20 03:19:42;;;;;;;25.40;14.10;;;;;;;;;;4989890;28;20772;-68
2022/06/20 03:22:10;;;;;;;23.67;14.33;;;;;;;;;;4992221;28;20399;-68
2022/06/20 03:24:37;;;;;;;20.77;13.07;;;;;;;;;;4990068;28;20424;-64
2022/06/20 03:27:04;;;;;;;16.83;14.67;;;;;;;;;;4989174;28;20443;-64
2022/06/20 03:29:30;;;;;;;19.40;13.70;;;;;;;;;;4989387;28;20450;-64
2022/06/20 03:31:56;;;;;;;20.60;15.00;;;;;;;;;;4990580;28;20396;-62
2022/06/20 03:34:22;;;;;;;19.63;14.73;;;;;;;;;;4989290;28;20420;-63
2022/06/20 03:36:49;;;;;;;26.40;15.13;;;;;;;;;;4988657;28;20418;-64
2022/06/20 03:39:16;;;;;;;29.60;14.93;;;;;;;;;;4987417;28;20434;-60
2022/06/20 03:41:43;;;;;;;37.77;15.87;;;;;;;;;;4987540;28;20411;-61
2022/06/20 03:44:18;;;;;;;19.23;14.10;;;;;;;;;;4987610;28;20544;-61
2022/06/20 03:46:44;;;;;;;26.53;15.60;;;;;;;;;;4987480;28;20502;-62
2022/06/20 03:49:16;;;;;;;24.60;13.87;;;;;;;;;;4986627;28;20734;-62
2022/06/20 03:51:45;;;;;;;22.40;15.27;;;;;;;;;;4987091;28;20926;-62
2022/06/20 03:54:24;;;;;;;21.17;13.60;;;;;;;;;;4987161;28;20785;-62
2022/06/20 03:57:10;;;;;;;20.50;13.97;;;;;;;;;;4987488;28;20391;-63
2022/06/20 03:59:40;;;;;;;21.30;15.20;;;;;;;;;;4987202;28;20454;-63
2022/06/20 04:02:32;;;;;;;21.07;14.00;;;;;;;;;;4987181;28;20404;-63
2022/06/20 04:05:02;;;;;;;22.53;14.30;;;;;;;;;;4979379;28;20577;-63
2022/06/20 04:07:31;;;;;;;17.50;14.87;;;;;;;;;;4986278;28;20866;-63
2022/06/20 04:12:53;;;;;;;28.67;14.23;;;;;;;;;;4987190;28;20395;-63
2022/06/20 04:15:29;;;;;;;19.00;14.00;;;;;;;;;;4990091;28;20422;-64
2022/06/20 04:18:27;;;;;;;16.47;13.60;;;;;;;;;;4989802;28;20454;-64
2022/06/20 04:20:56;;;;;;;27.47;14.00;;;;;;;;;;4990664;28;20421;-64
2022/06/20 04:23:25;;;;;;;18.77;14.03;;;;;;;;;;4990204;28;20404;-64
2022/06/20 04:25:55;;;;;;;29.27;14.10;;;;;;;;;;4990641;28;21061;-64
2022/06/20 04:28:30;;;;;;;32.63;14.23;;;;;;;;;;4989295;28;20463;-64
2022/06/20 04:30:59;;;;;;;23.07;13.50;;;;;;;;;;4990480;28;20786;-63
2022/06/20 04:33:25;;;;;;;23.03;14.50;;;;;;;;;;4989672;28;20465;-64
2022/06/20 04:36:14;;;;;;;25.67;14.37;;;;;;;;;;4990632;28;20711;-63
2022/06/20 04:38:55;;;;;;;18.07;13.20;;;;;;;;;;4989365;28;20427;-63
2022/06/20 04:41:35;;;;;;;28.27;14.40;;;;;;;;;;4989642;28;20419;-68
2022/06/20 04:44:05;;;;;;;19.57;13.03;;;;;;;;;;4989892;28;20447;-67
2022/06/20 04:46:39;;;;;;;43.10;14.77;;;;;;;;;;4990054;28;20458;-68
2022/06/20 04:49:05;;;;;;;42.50;14.60;;;;;;;;;;4989058;28;20487;-68
2022/06/20 04:51:34;;;;;;;29.03;13.50;;;;;;;;;;4990358;28;20450;-68
2022/06/20 04:54:01;;;;;;;21.90;13.90;;;;;;;;;;4983390;28;20446;-68
2022/06/20 04:56:27;;;;;;;22.73;14.03;;;;;;;;;;4988250;28;20443;-68
2022/06/20 04:58:55;;;;;;;19.13;13.27;;;;;;;;;;4988186;28;20404;-68
2022/06/20 05:01:21;;;;;;;25.50;13.73;;;;;;;;;;4989655;28;20550;-68
2022/06/20 05:03:57;;;;;;;23.80;13.60;;;;;;;;;;4989593;28;20402;-68
2022/06/20 05:06:26;;;;;;;22.70;13.20;;;;;;;;;;4990031;28;20396;-68
2022/06/20 05:08:53;;;;;;;16.93;12.97;;;;;;;;;;4987189;28;20459;-68
2022/06/20 05:11:39;;;;;;;19.10;14.20;;;;;;;;;;4989135;28;20711;-68
2022/06/20 05:14:11;;;;;;;30.00;13.80;;;;;;;;;;4989947;28;20451;-68
2022/06/20 05:16:42;;;;;;;25.23;15.70;;;;;;;;;;4989531;28;20404;-68
2022/06/20 05:19:17;;;;;;;27.33;13.60;;;;;;;;;;4987895;28;20427;-68
2022/06/20 05:21:45;;;;;;;23.60;15.20;;;;;;;;;;4982585;28;20892;-69
2022/06/20 05:24:13;;;;;;;24.70;13.70;;;;;;;;;;4988734;28;20439;-69
2022/06/20 05:26:41;;;;;;;33.73;14.30;;;;;;;;;;4986853;28;20462;-66
2022/06/20 05:29:10;;;;;;;25.47;14.97;;;;;;;;;;4984936;28;20503;-69
2022/06/20 05:31:49;;;;;;;19.30;13.23;;;;;;;;;;4987846;28;20462;-68
2022/06/20 05:34:15;;;;;;;22.97;13.83;;;;;;;;;;4986976;28;20883;-68
2022/06/20 05:37:00;;;;;;;22.30;14.00;;;;;;;;;;4988313;28;20979;-68
2022/06/20 05:39:32;;;;;;;19.23;14.20;;;;;;;;;;4986318;28;20609;-69
2022/06/20 05:41:59;;;;;;;26.43;13.40;;;;;;;;;;4986260;28;20439;-68
2022/06/20 05:44:25;;;;;;;26.03;13.37;;;;;;;;;;4987902;28;20455;-68
2022/06/20 05:46:55;;;;;;;20.57;13.50;;;;;;;;;;4987775;28;20450;-68
2022/06/20 05:49:26;;;;;;;22.63;13.10;;;;;;;;;;4987573;28;20769;-68
2022/06/20 05:51:54;;;;;;;19.87;11.50;;;;;;;;;;4987494;28;20466;-69
2022/06/20 05:54:23;;;;;;;14.40;10.13;;;;;;;;;;4981152;28;20531;-69
2022/06/20 05:56:49;;;;;;;12.97;9.50;;;;;;;;;;4987938;28;20430;-69
2022/06/20 05:59:29;;;;;;;10.97;8.07;;;;;;;;;;4987421;28;20425;-69
2022/06/20 06:02:00;;;;;;;11.90;7.97;;;26.80;99.90;;;;;;4983493;28;20423;-69
2022/06/20 06:04:32;;;;;;;15.20;7.63;;;26.80;99.90;;;;;;4977411;28;20444;-69
2022/06/20 06:07:02;;;;;;;13.53;7.33;;;26.80;99.90;;;;;;4988135;28;20605;-70
2022/06/20 06:09:40;;;;;;;17.03;7.50;;;26.70;99.90;;;;;;4987001;28;20422;-69
2022/06/20 06:12:13;;;;;;;9.80;7.20;;;26.90;99.90;;;;;;4987790;28;20470;-68
2022/06/20 06:14:52;;;;;;;15.57;8.27;;;27.10;99.90;;;;;;4988184;28;20501;-69
2022/06/20 06:17:22;;;;;;;15.50;7.73;;;;;;;;;;4988127;28;21102;-68
2022/06/20 06:19:51;;;;;;;29.57;9.90;;;;;;;;;;4988473;28;20400;-68
2022/06/20 06:22:26;;;;;;;11.00;6.97;;;;;;;;;;4988485;28;20739;-71
2022/06/20 06:25:05;;;;;;;9.17;7.07;;;;;;;;;;4987466;28;20454;-69
2022/06/20 06:27:33;;;;;;;12.30;7.20;;;;;;;;;;4981540;28;20501;-71
2022/06/20 06:30:01;;;;;;;11.00;6.93;;;;;;;;;;4979678;28;20500;-69
2022/06/20 06:32:30;;;;;;;13.83;6.97;;;;;;;;;;4977031;28;20466;-70
2022/06/20 06:34:59;;;;;;;24.53;8.37;;;;;;;;;;4979163;28;20422;-69
2022/06/20 06:37:29;;;;;;;16.20;7.63;;;;;;;;;;4976920;28;20561;-69
2022/06/20 06:39:59;;;;;;;11.87;7.17;;;;;;;;;;4974542;28;20730;-70
2022/06/20 06:42:25;;;;;;;21.17;7.80;;;;;;;;;;4989394;28;20412;-70
2022/06/20 06:44:53;;;;;;;15.37;7.50;;;;;;;;;;4989228;28;20450;-70
2022/06/20 06:47:19;;;;;;;15.07;7.23;;;;;;;;;;4988204;28;20471;-70
2022/06/20 06:49:48;;;;;;;15.70;7.20;;;;;;;;;;4987263;28;21134;-69
2022/06/20 06:52:23;;;;;;;11.87;7.27;;;;;;;;;;4988827;28;20168;-70
2022/06/20 06:54:53;;;;;;;16.93;7.63;;;;;;;;;;4989267;28;20470;-70
2022/06/20 06:57:19;;;;;;;16.73;7.23;;;;;;;;;;4988323;28;20561;-69
2022/06/20 06:59:58;;;;;;;7.67;6.47;;;;;;;;;;4988668;28;20786;-70
2022/06/20 07:02:26;;;;;;;15.47;6.13;;;;;;;;;;4988369;28;20404;-69
2022/06/20 07:05:01;;;;;;;16.43;7.67;;;;;;;;;;4989080;28;20439;-70
2022/06/20 07:07:43;;;;;;;21.80;8.00;;;;;;;;;;4987810;28;20596;-69
2022/06/20 07:10:16;;;;;;;18.27;7.83;;;;;;;;;;4969037;28;20393;-69
2022/06/20 07:12:51;;;;;;;16.17;8.00;;;;;;;;;;4969183;28;20890;-69
2022/06/20 07:15:19;;;;;;;11.33;7.27;;;;;;;;;;4969216;28;20427;-69
2022/06/20 07:17:51;;;;;;;12.60;7.90;;;;;;;;;;4974415;28;20411;-71
2022/06/20 07:20:19;;;;;;;20.57;8.23;;;;;;;;;;4988520;28;20469;-69
2022/06/20 07:22:47;;;;;;;18.20;7.23;;;;;;;;;;4988240;28;20411;-70
2022/06/20 07:25:19;;;;;;;13.27;6.90;;;;;;;;;;4988938;28;20428;-70
2022/06/20 07:27:48;;;;;;;9.93;6.63;;;;;;;;;;4988255;28;20509;-69
2022/06/20 07:30:16;;;;;;;11.43;7.20;;;;;;;;;;4988263;28;20412;-69
2022/06/20 07:32:48;;;;;;;22.90;7.10;;;;;;;;;;4988079;28;20404;-68
2022/06/20 07:35:16;;;;;;;9.73;6.60;;;;;;;;;;4988936;28;20421;-69
2022/06/20 07:37:48;;;;;;;11.83;6.73;;;;;;;;;;4987969;28;20754;-69
2022/06/20 07:40:18;;;;;;;10.57;7.10;;;;;;;;;;4988309;28;20412;-68
2022/06/20 07:42:46;;;;;;;10.33;6.43;;;;;;;;;;4988316;28;20509;-70
2022/06/20 07:45:18;;;;;;;9.87;7.20;;;;;;;;;;4988884;28;20435;-69
2022/06/20 07:47:44;;;;;;;9.77;6.67;;;;;;;;;;4985624;28;21081;-70
2022/06/20 07:50:16;;;;;;;16.40;7.30;;;;;;;;;;4988886;28;20923;-70
2022/06/20 07:52:59;;;;;;;9.60;7.40;;;;;;;;;;4991441;28;20852;-71
2022/06/20 07:55:29;;;;;;;10.87;6.33;;;;;;;;;;4991891;28;20454;-70
2022/06/20 07:57:59;;;;;;;15.20;7.80;;;;;;;;;;4991105;28;20400;-71
2022/06/20 08:00:29;;;;;;;16.47;9.37;;;;;;;;;;4991846;28;20447;-70
2022/06/20 08:03:03;;;;;;;17.03;7.77;;;;;;;;;;4990102;28;20415;-70
2022/06/20 08:05:40;;;;;;;16.97;7.70;;;;;;;;;;4992153;28;20765;-70
2022/06/20 08:08:10;;;;;;;12.53;7.13;;;;;;;;;;4991049;28;20807;-69
2022/06/20 08:10:45;;;;;;;13.43;7.80;;;;;;;;;;4992040;28;20907;-71
2022/06/20 08:13:33;;;;;;;17.93;7.63;;;;;;;;;;4991378;28;20816;-70
2022/06/20 08:16:05;;;;;;;13.17;8.27;;;;;;;;;;4992226;28;20422;-70
2022/06/20 08:18:31;;;;;;;11.97;6.70;;;;;;;;;;4990404;28;20881;-71
2022/06/20 08:21:02;;;;;;;21.63;8.13;;;;;;;;;;4992231;28;20411;-70
2022/06/20 08:23:31;;;;;;;19.23;8.30;;;;;;;;;;4991587;28;20435;-70
2022/06/20 08:25:58;;;;;;;12.00;6.90;;;;;;;;;;4991815;28;20423;-70
2022/06/20 08:28:40;;;;;;;8.63;6.50;;;;;;;;;;4990445;28;20784;-71
2022/06/20 08:31:13;;;;;;;12.27;7.27;;;;;;;;;;4992316;28;20407;-70
2022/06/20 08:33:44;;;;;;;13.30;8.13;;;;;;;;;;4991303;28;20400;-70
2022/06/20 08:36:10;;;;;;;12.43;7.00;;;;;;;;;;4992181;28;20427;-70
2022/06/20 08:38:56;;;;;;;18.73;7.57;;;;;;;;;;4990172;28;21027;-71
2022/06/20 08:41:31;;;;;;;16.37;7.23;;;;;;;;;;4991559;28;20171;-70
2022/06/20 08:44:10;;;;;;;14.33;8.00;;;;;;;;;;4990755;28;20415;-71
2022/06/20 08:47:03;;;;;;;11.07;7.03;;;;;;;;;;4989721;28;20419;-70
2022/06/20 08:49:48;;;;;;;11.03;6.60;;;;;;;;;;4991081;28;20384;-70
2022/06/20 08:52:26;;;;;;;11.00;8.50;;;;;;;;;;4990645;28;20412;-70
2022/06/20 08:54:52;;;;;;;21.07;8.30;;;;;;;;;;4991230;28;20502;-70
2022/06/20 08:57:21;;;;;;;22.27;7.67;;;;;;;;;;4989227;28;20802;-71
2022/06/20 08:59:50;;;;;;;42.67;10.10;;;;;;;;;;4990581;28;20252;-71
2022/06/20 09:02:16;;;;;;;14.30;8.17;;;;;;;;;;4990338;28;20460;-71
2022/06/20 09:05:00;;;;;;;12.10;7.50;;;;;;;;;;4991162;28;20960;-70
2022/06/20 09:07:42;;;;;;;13.73;7.10;;;;;;;;;;4990131;28;20206;-70
2022/06/20 09:10:08;;;;;;;20.33;7.93;;;;;;;;;;4971014;28;20389;-71
2022/06/20 09:12:43;;;;;;;9.67;7.20;;;;;;;;;;4971182;28;20397;-71
2022/06/20 09:15:19;;;;;;;13.63;7.30;;;;;;;;;;4971455;28;20193;-70
2022/06/20 09:17:48;;;;;;;9.53;6.60;;;;;;;;;;4975902;28;20410;-70
2022/06/20 09:20:17;;;;;;;28.47;9.53;;;;;;;;;;4990322;28;20473;-70
2022/06/20 09:23:01;;;;;;;11.70;6.27;;;;;;;;;;4990461;28;20487;-71
2022/06/20 09:25:27;;;;;;;13.20;7.50;;;;;;;;;;4990522;28;20428;-70
2022/06/20 09:28:07;;;;;;;20.50;7.50;;;;;;;;;;4989859;28;20534;-70
2022/06/20 09:30:52;;;;;;;19.10;8.60;;;;;;;;;;4990715;28;20407;-75
2022/06/20 09:33:20;;;;;;;14.10;7.23;;;;;;;;;;4990072;28;20752;-70
2022/06/20 09:36:00;;;;;;;14.53;7.70;;;;;;;;;;4990360;28;20445;-70
2022/06/20 09:38:36;;;;;;;17.30;7.63;;;;;;;;;;4989214;28;20453;-71
2022/06/20 09:41:22;;;;;;;8.87;7.73;;;;;;;;;;4990602;28;20453;-70
2022/06/20 09:44:07;;;;;;;13.40;8.20;;;;;;;;;;4989867;28;20884;-70
2022/06/20 09:46:40;;;;;;;9.90;7.87;;;;;;;;;;4989970;28;20851;-70
2022/06/20 09:49:15;;;;;;;13.63;8.83;;;;;;;;;;4989201;28;20388;-70
2022/06/20 09:51:53;;;;;;;9.87;7.10;;;;;;;;;;4990199;28;20407;-70
2022/06/20 09:54:38;;;;;;;13.33;8.13;;;;;;;;;;4989878;28;20431;-70
2022/06/20 09:57:04;;;;;;;12.40;7.60;;;;;;;;;;4989287;28;20407;-70
2022/06/20 09:59:39;;;;;;;16.13;8.87;;;;;;;;;;4989791;28;20395;-71
2022/06/20 10:02:24;;;;;;;19.37;8.60;;;;;;;;;;4989749;28;20395;-70
2022/06/20 10:04:50;;;;;;;8.63;7.90;;;;;;;;;;4989846;28;20880;-71
2022/06/20 10:07:34;;;;;;;9.80;7.77;;;;;;;;;;4989117;28;20483;-71
2022/06/20 10:10:04;;;;;;;11.73;8.20;;;;;;;;;;5009467;28;20230;-71
2022/06/20 10:12:49;;;;;;;10.97;7.37;;;;;;;;;;5008412;28;20399;-71
2022/06/20 10:15:15;;;;;;;10.87;7.80;;;;;;;;;;5009074;28;20501;-71
2022/06/20 10:17:47;;;;;;;28.53;8.83;;;;;;;;;;5002998;28;20600;-70
2022/06/20 10:20:16;;;;;;;8.37;7.57;;;;;;;;;;4989643;28;20408;-70
2022/06/20 10:23:05;;;;;;;11.70;7.43;;;;;;;;;;4988889;28;20812;-71
2022/06/20 10:25:50;;;;;;;10.33;7.57;;;;;;;;;;4989253;28;20416;-70
2022/06/20 10:28:16;;;;;;;8.67;7.43;;;;;;;;;;4988111;28;20199;-71
2022/06/20 10:30:50;;;;;;;8.67;7.60;;;;;;;;;;4989131;28;20979;-70
2022/06/20 10:33:22;;;;;;;12.00;7.13;;;;;;;;;;4988718;28;20550;-71
2022/06/20 10:35:54;;;;;;;9.80;7.33;;;;;;;;;;4988949;28;20185;-70
2022/06/20 10:38:28;;;;;;;9.80;8.03;;;;;;;;;;4988045;28;20533;-70
2022/06/20 10:41:03;;;;;;;10.30;8.13;;;;;;;;;;4989094;28;20483;-70
2022/06/20 10:43:47;;;;;;;14.63;7.47;;;;;;;;;;4989049;28;20171;-70
2022/06/20 10:46:13;;;;;;;10.77;8.97;;;;;;;;;;4989116;28;20398;-70
2022/06/20 10:48:42;;;;;;;9.87;7.13;;;;;;;;;;4988723;28;20507;-71
2022/06/20 10:51:08;;;;;;;13.60;6.77;;;;;;;;;;4989345;28;20419;-71
2022/06/20 10:53:57;;;;;;;8.23;7.00;;;;;;;;;;4995828;28;20514;-71
2022/06/20 10:56:29;;;;;;;22.37;7.00;;;;;;;;;;4985432;28;20416;-72
2022/06/20 10:59:06;;;;;;;7.67;6.40;;;;;;;;;;4993474;28;20407;-71
2022/06/20 11:01:32;;;;;;;9.00;6.67;;;;;;;;;;4993923;28;20524;-74
2022/06/20 11:04:05;;;;;;;12.67;6.90;;;;;;;;;;4993184;28;20173;-72
2022/06/20 11:06:36;;;;;;;8.90;6.07;;;31.50;1.00;;;;;;4993303;28;20172;-71
2022/06/20 11:09:28;;;;;;;15.50;7.27;;;31.50;1.00;;;;;;4989772;28;20407;-71
2022/06/20 11:12:15;;;;;;;7.63;6.83;;;31.40;1.00;;;;;;4988912;28;20406;-71
2022/06/20 11:14:49;;;;;;;9.47;7.17;;;31.30;1.00;;;;;;4988809;28;20483;-70
2022/06/20 11:17:35;;;;;;;9.90;7.10;;;31.00;1.00;;;;;;4987845;28;20175;-72
2022/06/20 11:20:25;;;;;;;8.37;7.47;;;31.00;1.00;;;;;;4988116;28;20485;-70
2022/06/20 11:23:02;;;;;;;8.93;7.60;;;31.00;1.00;;;;;;4988988;28;20443;-70
2022/06/20 11:25:52;;;;;;;11.00;6.80;;;31.00;1.00;;;;;;4992980;28;20441;-70
2022/06/20 11:28:27;;;;;;;17.50;8.57;;;31.10;1.00;;;;;;4991510;28;20512;-70
2022/06/20 11:30:56;;;;;;;13.00;8.10;;;31.10;1.00;;;;;;4992825;28;20427;-70
2022/06/20 11:36:59;;;;;;;9.13;7.07;;;31.20;1.00;;;;;;4992662;28;20482;-70
2022/06/20 11:39:31;;;;;;;10.43;7.30;;;;;;;;;;4991158;28;20403;-70
2022/06/20 11:42:09;;;;;;;11.17;7.63;;;;;;;;;;4991954;28;20454;-70
2022/06/20 11:44:38;;;;;;;8.43;6.40;;;;;;;;;;4992038;28;20804;-74
2022/06/20 11:47:23;;;;;;;24.50;8.27;;;;;;;;;;4991534;28;20448;-70
2022/06/20 11:50:08;;;;;;;46.17;10.10;;;;;;;;;;4992039;28;20403;-69
2022/06/20 11:52:51;;;;;;;10.47;6.43;;;;;;;;;;4973869;28;20407;-70
2022/06/20 11:55:30;;;;;;;12.30;6.43;;;;;;;;;;4992129;28;20280;-70
2022/06/20 11:58:05;;;;;;;11.90;7.60;;;;;;;;;;4991018;28;20935;-70
2022/06/20 12:00:31;;;;;;;7.73;6.17;;;;;;;;;;4992080;28;20407;-70
2022/06/20 12:03:12;;;;;;;10.50;7.83;;;;;;;;;;4989935;28;20422;-70
2022/06/20 12:05:45;;;;;;;9.10;6.20;;;;;;;;;;4992360;28;21091;-70
2022/06/20 12:08:11;;;;;;;7.13;6.43;;;;;;;;;;4989730;28;20546;-70
2022/06/20 12:10:46;;;;;;;16.90;6.97;;;;;;;;;;4982822;28;20423;-70
2022/06/20 12:13:24;;;;;;;9.17;6.80;;;;;;;;;;4991044;28;20180;-70
2022/06/20 12:15:53;;;;;;;6.80;6.10;;;;;;;;;;4991985;28;20446;-69
2022/06/20 12:18:39;;;;;;;9.80;7.80;;;;;;;;;;4990289;28;20547;-70
2022/06/20 12:24:06;;;;;;;9.80;7.40;;;;;;;;;;4991099;28;20267;-70
2022/06/20 12:26:35;;;;;;;7.70;6.60;;;;;;;;;;4991170;28;20425;-69
2022/06/20 12:29:02;;;;;;;8.03;7.13;;;;;;;;;;4990887;28;20771;-69
2022/06/20 12:31:34;;;;;;;8.97;6.83;;;;;;;;;;4991209;28;20824;-70
2022/06/20 12:34:06;;;;;;;14.60;6.80;;;;;;;;;;4991093;28;20745;-69
2022/06/20 12:36:32;;;;;;;11.97;7.00;;;;;;;;;;4990690;28;20165;-69
2022/06/20 12:39:05;;;;;;;8.73;6.03;;;;;;;;;;4990005;28;20161;-69
2022/06/20 12:41:36;;;;;;;10.07;7.77;;;;;;;;;;4990994;28;20177;-69
2022/06/20 12:44:21;;;;;;;9.03;7.70;;;;;;;;;;4991185;28;20497;-70
2022/06/20 12:46:47;;;;;;;10.97;8.63;;;;;;;;;;4991245;28;20508;-70
2022/06/20 12:49:31;;;;;;;14.97;9.30;;;;;;;;;;4989518;28;20411;-68
2022/06/20 12:52:01;;;;;;;15.90;10.60;;;;;;;;;;4991189;28;20411;-69
2022/06/20 12:54:27;;;;;;;22.67;10.63;;;;;;;;;;4990750;28;20439;-68
2022/06/20 12:57:05;;;;;;;15.37;9.03;;;;;;;;;;4990601;28;20169;-69
2022/06/20 12:59:37;;;;;;;13.90;9.57;;;;;;;;;;4990652;28;20849;-69
2022/06/20 13:02:23;;;;;;;12.07;10.07;;;;;;;;;;4990706;28;20399;-68
2022/06/20 13:04:55;;;;;;;11.47;10.27;;;;;;;;;;4989908;28;20187;-68
2022/06/20 13:07:40;;;;;;;10.60;9.40;;;;;;;;;;4988497;28;20954;-68
2022/06/20 13:10:12;;;;;;;17.10;8.43;;;;;;;;;;4969779;28;20424;-69
2022/06/20 13:12:50;;;;;;;15.77;7.70;;;;;;;;;;4970752;28;20184;-68
2022/06/20 13:15:25;;;;;;;9.23;8.33;;;;;;;;;;4971422;28;20977;-69
2022/06/20 13:18:09;;;;;;;12.47;7.63;;;;;;;;;;4977165;28;20179;-69
2022/06/20 13:20:44;;;;;;;21.43;7.83;;;;;;;;;;4991019;28;20176;-69
2022/06/20 13:23:26;;;;;;;12.53;7.17;;;;;;;;;;4990549;28;20418;-69
2022/06/20 13:25:57;;;;;;;18.00;7.83;;;;;;;;;;4991090;28;20431;-68
2022/06/20 13:28:26;;;;;;;16.20;8.00;;;;;;;;;;4989562;28;20939;-68
2022/06/20 13:31:02;;;;;;;13.83;7.30;;;;;;;;;;4991358;28;20419;-69
2022/06/20 13:33:34;;;;;;;11.60;6.47;;;;;;;;;;4990234;28;20175;-68
2022/06/20 13:36:19;;;;;;;10.00;7.50;;;;;;;;;;4990554;28;20477;-69
2022/06/20 13:38:52;;;;;;;8.07;6.80;;;;;;;;;;5007664;28;20478;-69
2022/06/20 13:41:21;;;;;;;10.67;6.30;;;;;;;;;;5008958;28;20427;-68
2022/06/20 13:43:52;;;;;;;13.87;7.40;;;;;;;;;;5009275;28;20405;-70
2022/06/20 13:46:18;;;;;;;11.57;6.77;;;;;;;;;;5009746;28;20480;-69
2022/06/20 13:48:50;;;;;;;9.30;5.83;;;;;;;;;;5007763;28;20442;-70
2022/06/20 13:51:26;;;;;;;9.97;6.60;;;;;;;;;;4989614;28;20414;-69
2022/06/20 13:53:52;;;;;;;17.10;7.80;;;;;;;;;;4989219;28;20766;-69
2022/06/20 13:56:24;;;;;;;10.37;6.10;;;;;;;;;;4989044;28;20408;-69
2022/06/20 13:58:55;;;;;;;8.13;5.60;;;;;;;;;;4988714;28;20399;-69
2022/06/20 14:01:22;;;;;;;7.30;6.50;;;;;;;;;;4989125;28;20450;-69
2022/06/20 14:03:54;;;;;;;7.10;5.63;;;;;;;;;;4989635;28;20414;-69
2022/06/20 14:06:29;;;;;;;11.23;5.87;;;;;;;;;;4989600;28;20404;-69
2022/06/20 14:08:57;;;;;;;7.53;6.00;;;;;;;;;;4999449;28;20461;-68
2022/06/20 14:11:25;;;;;;;9.27;5.50;;;;;;;;;;5008691;28;20421;-69
2022/06/20 14:13:52;;;;;;;10.20;6.60;;;;;;;;;;5009486;28;20482;-70
2022/06/20 14:16:18;;;;;;;15.87;6.37;;;;;;;;;;5009660;28;20403;-69
2022/06/20 14:18:47;;;;;;;15.87;7.07;;;;;;;;;;4994423;28;20411;-71
2022/06/20 14:21:13;;;;;;;8.80;6.30;;;;;;;;;;4989736;28;20857;-70
2022/06/20 14:23:39;;;;;;;11.07;6.70;;;;;;;;;;4989193;28;20400;-70
2022/06/20 14:26:23;;;;;;;11.10;5.97;;;;;;;;;;4989496;28;20415;-70
2022/06/20 14:28:50;;;;;;;8.17;5.47;;;;;;;;;;4990180;28;20823;-69
2022/06/20 14:31:22;;;;;;;12.30;5.70;;;;;;;;;;4994162;28;20415;-70
2022/06/20 14:34:10;;;;;;;6.53;4.93;;;29.10;10.10;;;;;;5001775;28;20434;-70
2022/06/20 14:36:53;;;;;;;14.97;5.80;;;29.10;18.50;;;;;;4997108;28;20423;-71
2022/06/20 14:39:49;;;;;;;8.23;4.90;;;29.00;17.90;;;;;;4998213;28;20479;-71
2022/06/20 14:42:21;;;;;;;17.13;5.50;;;29.10;17.10;;;;;;4995321;28;20483;-71
2022/06/20 14:44:53;;;;;;;6.77;4.93;;;29.00;18.40;;;;;;4991637;28;20447;-71
2022/06/20 14:47:48;;;;;;;16.83;6.10;;;28.90;18.10;;;;;;4988724;28;20497;-70
2022/06/20 14:50:22;;;;;;;11.80;6.30;;;28.80;19.40;;;;;;4989207;28;20830;-69
2022/06/20 14:52:59;;;;;;;11.20;6.47;;;28.70;20.00;;;;;;4988962;28;20478;-70
2022/06/20 14:55:36;;;;;;;12.90;9.70;;;28.60;20.90;;;;;;4989277;28;20574;-70
2022/06/20 14:58:14;;;;;;;11.70;7.23;;;28.70;22.10;;;;;;4988227;28;20767;-69
2022/06/20 15:01:06;;;;;;;21.97;7.03;;;28.80;23.40;;;;;;4989469;28;20510;-69